Accueil
METAR-TAF:

METAR-TAF

Aéroports :

Odiham, Angleterre

latitude: 51-14N, longitude: 000-57W, altitude: 123 m

Observation

Le bulletin a été fait il y a 47 minutes, à 05:50 UTC
Vent 7 kt de sud-ouest
Température 14°C
Humidité 94%
Pression 1016 hPa
Visibilité 10 km ou plus
Nuages fragmentés à une hauteur de 4500 ft
Nuages fragmentés à une hauteur de 25000 ft

METAR: EGVO 240550Z 22007KT 9999 BKN045 BKN250 14/13 Q1016 BLU NOSIG

Heure: 07:37 (06:37 UTC)

Prévision

Le bulletin a été fait il y a 2 heures et 19 minutes, à 04:18 UTC
Prévision valable du 24 à 06 UTC au 24 à 18 UTC
Vent 5 kt de sud-ouest
Visibilité 10 km ou plus
Quelques nuages à une hauteur de 1800 ft
Nuages épars à une hauteur de 3500 ft

TAF: EGVO 240418Z 2406/2418 23005KT 9999 FEW018 SCT035

Observations et prévisions météorologiques de plus de 4000 aéroports (messages METAR et TAF).

Les stations disponibles sont représentées par des disques jaunes et rouges sur la carte.

Passer la souris dessus pour voir le nom de la station.

Cliquer dessus pour voir les observations et prévisions météorologiques.

Pour changer de carte: cliquez sur les boutons verts avec une croix noire pour zoomer, sur le bouton vert avec un tiret pour effectuer un zoom arrière, ou sur les flèches vertes pour les cartes adjacentes.


METAR-TAF: